^^
Saratoga-Weather Station Historical Data
Daily Summary for June 19, 2020 Units:  Both    English   Metric
Daily Weekly Monthly Yearly Custom
  High: Low: Average:
Temperature: 86.5 °F /  30.3 °C 56.7 °F /  13.7 °C 73 °F /  22.8 °C
Dew Point: 61 °F /  16.1 °C 48 °F /  8.9 °C 54.1 °F /  12.3 °C
Humidity: 89% 27% 56%
Wind Speed: 8.9mph /  14.3km/h - 1.4mph /  2.3km/h
Wind Gust: 11mph /  17.7km/h - -
Wind- - SW
Pressure: 30 in /  1016.3 hPa 29.9 in /  1012.9 hPa -
Precipitation: 0 in /  0.0 mm    
Historical Graphs
 
 
Tabular Data for June 19, 2020
Time Temperature Dew Point Pressure Wind Wind Speed Wind Gust Humidity Rainfall Rate (Hourly) solar
00:02 64.8 °F /  18.2 °C 55.6 °F /  13.1 °C 30in /  1016.3hPa Calm     72% 0in /  0.0mm 0 W/m2
00:07 64.6 °F /  18.1 °C 55.4 °F /  13 °C 30in /  1016.3hPa Calm     72% 0in /  0.0mm 0 W/m2
00:12 64.4 °F /  18 °C 55.6 °F /  13.1 °C 30in /  1016.3hPa Calm     73% 0in /  0.0mm 0 W/m2
00:17 64.2 °F /  17.9 °C 55.4 °F /  13 °C 30in /  1016.3hPa Calm     73% 0in /  0.0mm 0 W/m2
00:22 64 °F /  17.8 °C 55.2 °F /  12.9 °C 30in /  1016.3hPa Calm     73% 0in /  0.0mm 0 W/m2
00:28 64 °F /  17.8 °C 55.2 °F /  12.9 °C 30in /  1016.3hPa South 0.9mph /  1.4km/h 1mph /  1.6km/h 73% 0in /  0.0mm 0 W/m2
00:33 64.2 °F /  17.9 °C 55.4 °F /  13 °C 30in /  1016.3hPa Calm     73% 0in /  0.0mm 0 W/m2
00:38 64 °F /  17.8 °C 55.2 °F /  12.9 °C 30in /  1016.3hPa Calm     73% 0in /  0.0mm 0 W/m2
00:43 64 °F /  17.8 °C 55.2 °F /  12.9 °C 30in /  1016.3hPa Calm     73% 0in /  0.0mm 0 W/m2
00:48 63.9 °F /  17.7 °C 55 °F /  12.8 °C 30in /  1016.3hPa Calm     73% 0in /  0.0mm 0 W/m2
00:53 63.7 °F /  17.6 °C 54.9 °F /  12.7 °C 30in /  1016.3hPa Calm     73% 0in /  0.0mm 0 W/m2
00:58 63.7 °F /  17.6 °C 55.2 °F /  12.9 °C 30in /  1016.3hPa Calm     74% 0in /  0.0mm 0 W/m2
01:03 63.7 °F /  17.6 °C 55.2 °F /  12.9 °C 30in /  1016.3hPa Calm   1mph /  1.6km/h 74% 0in /  0.0mm 0 W/m2
01:08 63.5 °F /  17.5 °C 55 °F /  12.8 °C 30in /  1016.3hPa Calm     74% 0in /  0.0mm 0 W/m2
01:13 63.3 °F /  17.4 °C 54.9 °F /  12.7 °C 30in /  1016.3hPa Calm     74% 0in /  0.0mm 0 W/m2
01:18 63.3 °F /  17.4 °C 55.2 °F /  12.9 °C 30in /  1016.3hPa Calm     75% 0in /  0.0mm 0 W/m2
01:23 63.1 °F /  17.3 °C 55 °F /  12.8 °C 30in /  1016.3hPa Calm     75% 0in /  0.0mm 0 W/m2
01:28 63.1 °F /  17.3 °C 55 °F /  12.8 °C 30in /  1016.3hPa Calm     75% 0in /  0.0mm 0 W/m2
01:33 63.1 °F /  17.3 °C 55 °F /  12.8 °C 30in /  1016.3hPa Calm     75% 0in /  0.0mm 0 W/m2
01:38 63.1 °F /  17.3 °C 55 °F /  12.8 °C 30in /  1016.3hPa Calm     75% 0in /  0.0mm 0 W/m2
01:43 63 °F /  17.2 °C 55.2 °F /  12.9 °C 30in /  1016.3hPa Calm   1mph /  1.6km/h 76% 0in /  0.0mm 0 W/m2
01:48 63 °F /  17.2 °C 55.2 °F /  12.9 °C 30in /  1016.3hPa Calm     76% 0in /  0.0mm 0 W/m2
01:53 62.8 °F /  17.1 °C 55 °F /  12.8 °C 30in /  1016.3hPa Calm     76% 0in /  0.0mm 0 W/m2
01:58 62.4 °F /  16.9 °C 54.7 °F /  12.6 °C 30in /  1016.3hPa Calm     76% 0in /  0.0mm 0 W/m2
02:04 62.2 °F /  16.8 °C 54.9 °F /  12.7 °C 30in /  1016.3hPa South 0.9mph /  1.4km/h 1mph /  1.6km/h 77% 0in /  0.0mm 0 W/m2
02:09 62.1 °F /  16.7 °C 54.7 °F /  12.6 °C 30in /  1016.3hPa Calm   1mph /  1.6km/h 77% 0in /  0.0mm 0 W/m2
02:14 62.1 °F /  16.7 °C 54.7 °F /  12.6 °C 30in /  1015.9hPa Calm     77% 0in /  0.0mm 0 W/m2
02:19 61.9 °F /  16.6 °C 54.7 °F /  12.6 °C 30in /  1015.9hPa Calm     77% 0in /  0.0mm 0 W/m2
02:24 61.9 °F /  16.6 °C 54.7 °F /  12.6 °C 30in /  1015.9hPa Calm     77% 0in /  0.0mm 0 W/m2
02:29 61.7 °F /  16.5 °C 54.5 °F /  12.5 °C 30in /  1015.9hPa Calm     77% 0in /  0.0mm 0 W/m2
02:34 61.5 °F /  16.4 °C 54.7 °F /  12.6 °C 30in /  1015.9hPa Calm     78% 0in /  0.0mm 0 W/m2
02:39 61.3 °F /  16.3 °C 54.5 °F /  12.5 °C 30in /  1015.9hPa Calm     78% 0in /  0.0mm 0 W/m2
02:44 61.2 °F /  16.2 °C 54.3 °F /  12.4 °C 30in /  1015.9hPa Calm     78% 0in /  0.0mm 0 W/m2
02:49 61.2 °F /  16.2 °C 54.7 °F /  12.6 °C 30in /  1015.9hPa Calm   1mph /  1.6km/h 79% 0in /  0.0mm 0 W/m2
02:54 61 °F /  16.1 °C 54.5 °F /  12.5 °C 30in /  1015.9hPa Calm     79% 0in /  0.0mm 0 W/m2
02:59 61 °F /  16.1 °C 54.5 °F /  12.5 °C 30in /  1015.9hPa Calm     79% 0in /  0.0mm 0 W/m2
03:04 60.8 °F /  16 °C 54.3 °F /  12.4 °C 30in /  1015.9hPa Calm     79% 0in /  0.0mm 0 W/m2
03:09 60.6 °F /  15.9 °C 54.1 °F /  12.3 °C 30in /  1015.9hPa Calm     79% 0in /  0.0mm 0 W/m2
03:14 60.6 °F /  15.9 °C 54.5 °F /  12.5 °C 30in /  1015.9hPa Calm     80% 0in /  0.0mm 0 W/m2
03:19 60.6 °F /  15.9 °C 54.5 °F /  12.5 °C 30in /  1015.9hPa Calm     80% 0in /  0.0mm 0 W/m2
03:24 60.6 °F /  15.9 °C 54.5 °F /  12.5 °C 30in /  1015.9hPa Calm     80% 0in /  0.0mm 0 W/m2
03:30 60.6 °F /  15.9 °C 54.5 °F /  12.5 °C 30in /  1015.9hPa Calm     80% 0in /  0.0mm 0 W/m2
03:35 60.4 °F /  15.8 °C 54.3 °F /  12.4 °C 30in /  1015.9hPa Calm     80% 0in /  0.0mm 0 W/m2
03:40 60.4 °F /  15.8 °C 54.3 °F /  12.4 °C 30in /  1015.9hPa Calm     80% 0in /  0.0mm 0 W/m2
03:45 60.3 °F /  15.7 °C 54.1 °F /  12.3 °C 30in /  1015.9hPa Calm     80% 0in /  0.0mm 0 W/m2
03:50 60.1 °F /  15.6 °C 54.3 °F /  12.4 °C 30in /  1015.9hPa Calm     81% 0in /  0.0mm 0 W/m2
03:55 59.7 °F /  15.4 °C 54 °F /  12.2 °C 30in /  1015.9hPa Calm     81% 0in /  0.0mm 0 W/m2
04:00 59.5 °F /  15.3 °C 54 °F /  12.2 °C 30in /  1015.6hPa South 0.9mph /  1.4km/h 1mph /  1.6km/h 82% 0in /  0.0mm 0 W/m2
04:05 59.4 °F /  15.2 °C 53.8 °F /  12.1 °C 30in /  1015.6hPa Calm   1mph /  1.6km/h 82% 0in /  0.0mm 0 W/m2
04:10 59.2 °F /  15.1 °C 53.6 °F /  12 °C 30in /  1015.6hPa Calm     82% 0in /  0.0mm 0 W/m2
04:15 59.2 °F /  15.1 °C 53.6 °F /  12 °C 30in /  1015.6hPa Calm     82% 0in /  0.0mm 0 W/m2
04:20 58.8 °F /  14.9 °C 53.4 °F /  11.9 °C 30in /  1015.6hPa Calm     82% 0in /  0.0mm 0 W/m2
04:25 58.6 °F /  14.8 °C 53.4 °F /  11.9 °C 30in /  1015.6hPa Calm     83% 0in /  0.0mm 0 W/m2
04:30 58.6 °F /  14.8 °C 53.4 °F /  11.9 °C 30in /  1015.6hPa Calm     83% 0in /  0.0mm 0 W/m2
04:35 58.5 °F /  14.7 °C 53.2 °F /  11.8 °C 30in /  1015.6hPa Calm     83% 0in /  0.0mm 0 W/m2
04:40 58.3 °F /  14.6 °C 53.4 °F /  11.9 °C 30in /  1015.6hPa Calm     84% 0in /  0.0mm 0 W/m2
04:46 58.3 °F /  14.6 °C 53.4 °F /  11.9 °C 30in /  1015.6hPa Calm     84% 0in /  0.0mm 0 W/m2
04:51 57.9 °F /  14.4 °C 53.1 °F /  11.7 °C 30in /  1015.6hPa Calm     84% 0in /  0.0mm 0 W/m2
04:56 57.9 °F /  14.4 °C 53.4 °F /  11.9 °C 30in /  1015.6hPa Calm     85% 0in /  0.0mm 0 W/m2
05:01 57.9 °F /  14.4 °C 53.4 °F /  11.9 °C 30in /  1015.6hPa Calm     85% 0in /  0.0mm 0 W/m2
05:06 57.7 °F /  14.3 °C 53.2 °F /  11.8 °C 30in /  1015.2hPa Calm     85% 0in /  0.0mm 0 W/m2
05:11 57.7 °F /  14.3 °C 53.2 °F /  11.8 °C 30in /  1015.6hPa Calm     85% 0in /  0.0mm 0 W/m2
05:16 57.6 °F /  14.2 °C 53.1 °F /  11.7 °C 30in /  1015.6hPa Calm     85% 0in /  0.0mm 0 W/m2
05:21 57.6 °F /  14.2 °C 53.1 °F /  11.7 °C 30in /  1015.6hPa Calm     85% 0in /  0.0mm 0 W/m2
05:26 57.4 °F /  14.1 °C 53.2 °F /  11.8 °C 30in /  1015.2hPa Calm     86% 0in /  0.0mm 0 W/m2
05:31 57.2 °F /  14 °C 53.1 °F /  11.7 °C 30in /  1015.2hPa Calm     86% 0in /  0.0mm 0 W/m2
05:36 57 °F /  13.9 °C 52.9 °F /  11.6 °C 30in /  1015.2hPa Calm     86% 0in /  0.0mm 0 W/m2
05:41 57 °F /  13.9 °C 53.2 °F /  11.8 °C 30in /  1015.2hPa Calm     87% 0in /  0.0mm 0 W/m2
05:46 56.8 °F /  13.8 °C 53.1 °F /  11.7 °C 30in /  1015.2hPa Calm     87% 0in /  0.0mm 0 W/m2
05:51 56.8 °F /  13.8 °C 53.1 °F /  11.7 °C 30in /  1015.2hPa Calm     87% 0in /  0.0mm 0 W/m2
05:56 56.8 °F /  13.8 °C 53.1 °F /  11.7 °C 30in /  1015.2hPa Calm     87% 0in /  0.0mm 0 W/m2
06:01 56.7 °F /  13.7 °C 52.9 °F /  11.6 °C 30in /  1015.2hPa Calm     87% 0in /  0.0mm 5 W/m2
06:06 56.7 °F /  13.7 °C 53.1 °F /  11.7 °C 30in /  1015.2hPa Calm     88% 0in /  0.0mm 9 W/m2
06:11 56.7 °F /  13.7 °C 53.1 °F /  11.7 °C 30in /  1015.2hPa Calm     88% 0in /  0.0mm 11 W/m2
06:16 56.7 °F /  13.7 °C 53.4 °F /  11.9 °C 30in /  1015.2hPa Calm     89% 0in /  0.0mm 12 W/m2
06:21 56.7 °F /  13.7 °C 53.4 °F /  11.9 °C 30in /  1015.2hPa Calm     89% 0in /  0.0mm 14 W/m2
06:26 56.7 °F /  13.7 °C 53.1 °F /  11.7 °C 30in /  1015.2hPa Calm     88% 0in /  0.0mm 18 W/m2
06:31 56.7 °F /  13.7 °C 53.4 °F /  11.9 °C 30in /  1015.2hPa Calm     89% 0in /  0.0mm 19 W/m2
06:36 56.7 °F /  13.7 °C 53.4 °F /  11.9 °C 30in /  1015.2hPa Calm     89% 0in /  0.0mm 18 W/m2
06:42 56.8 °F /  13.8 °C 53.6 °F /  12 °C 30in /  1015.2hPa Calm     89% 0in /  0.0mm 21 W/m2
06:47 56.8 °F /  13.8 °C 53.6 °F /  12 °C 30in /  1015.2hPa Calm     89% 0in /  0.0mm 25 W/m2
06:52 56.8 °F /  13.8 °C 53.6 °F /  12 °C 30in /  1015.2hPa Calm     89% 0in /  0.0mm 26 W/m2
06:57 57 °F /  13.9 °C 53.8 °F /  12.1 °C 30in /  1015.2hPa Calm     89% 0in /  0.0mm 28 W/m2
07:02 57.4 °F /  14.1 °C 53.8 °F /  12.1 °C 30in /  1015.2hPa South 2mph /  3.2km/h 2mph /  3.2km/h 88% 0in /  0.0mm 30 W/m2
07:07 57.7 °F /  14.3 °C 54.1 °F /  12.3 °C 30in /  1015.2hPa Calm     88% 0in /  0.0mm 32 W/m2
07:12 57.7 °F /  14.3 °C 54.1 °F /  12.3 °C 30in /  1015.2hPa Calm     88% 0in /  0.0mm 32 W/m2
07:17 58.3 °F /  14.6 °C 54.1 °F /  12.3 °C 30in /  1015.2hPa Calm     86% 0in /  0.0mm 33 W/m2
07:22 58.5 °F /  14.7 °C 54.3 °F /  12.4 °C 30in /  1015.2hPa Calm     86% 0in /  0.0mm 35 W/m2
07:27 58.6 °F /  14.8 °C 54.5 °F /  12.5 °C 30in /  1015.2hPa Calm     86% 0in /  0.0mm 35 W/m2
07:32 58.8 °F /  14.9 °C 54.7 °F /  12.6 °C 30in /  1015.2hPa Calm     86% 0in /  0.0mm 37 W/m2
07:37 59.2 °F /  15.1 °C 54.7 °F /  12.6 °C 30in /  1015.2hPa Calm     85% 0in /  0.0mm 37 W/m2
07:42 59.5 °F /  15.3 °C 55 °F /  12.8 °C 30in /  1015.2hPa Calm     85% 0in /  0.0mm 39 W/m2
07:47 60.1 °F /  15.6 °C 55.2 °F /  12.9 °C 30in /  1015.2hPa Calm     84% 0in /  0.0mm 39 W/m2
07:52 60.4 °F /  15.8 °C 55.6 °F /  13.1 °C 30in /  1015.2hPa Calm   1mph /  1.6km/h 84% 0in /  0.0mm 42 W/m2
07:57 60.8 °F /  16 °C 55.6 °F /  13.1 °C 30in /  1015.2hPa Calm   1mph /  1.6km/h 83% 0in /  0.0mm 204 W/m2
08:02 61.5 °F /  16.4 °C 55.9 °F /  13.3 °C 30in /  1015.2hPa ESE 0.9mph /  1.4km/h 1mph /  1.6km/h 82% 0in /  0.0mm 230 W/m2
08:07 62.6 °F /  17 °C 56.3 °F /  13.5 °C 30in /  1015.2hPa Calm   1mph /  1.6km/h 80% 0in /  0.0mm 244 W/m2
08:12 63.7 °F /  17.6 °C 56.7 °F /  13.7 °C 30in /  1015.2hPa East 0.9mph /  1.4km/h 1mph /  1.6km/h 78% 0in /  0.0mm 258 W/m2
08:17 64.8 °F /  18.2 °C 57 °F /  13.9 °C 30in /  1015.2hPa NE 2mph /  3.2km/h 2mph /  3.2km/h 76% 0in /  0.0mm 272 W/m2
08:22 65.5 °F /  18.6 °C 57 °F /  13.9 °C 30in /  1015.2hPa ESE 2mph /  3.2km/h 2mph /  3.2km/h 74% 0in /  0.0mm 269 W/m2
08:27 66.4 °F /  19.1 °C 57.4 °F /  14.1 °C 30in /  1015.2hPa Calm   3mph /  4.8km/h 73% 0in /  0.0mm 156 W/m2
08:32 66.7 °F /  19.3 °C 57.4 °F /  14.1 °C 30in /  1015.2hPa ENE 2mph /  3.2km/h 2mph /  3.2km/h 72% 0in /  0.0mm 65 W/m2
08:37 67.3 °F /  19.6 °C 57.6 °F /  14.2 °C 30in /  1015.6hPa NE 2mph /  3.2km/h 3mph /  4.8km/h 71% 0in /  0.0mm 54 W/m2
08:42 67.6 °F /  19.8 °C 58.3 °F /  14.6 °C 30in /  1015.6hPa Calm   1mph /  1.6km/h 72% 0in /  0.0mm 54 W/m2
08:47 67.6 °F /  19.8 °C 57.6 °F /  14.2 °C 30in /  1015.6hPa NNE 2mph /  3.2km/h 2mph /  3.2km/h 70% 0in /  0.0mm 54 W/m2
08:52 68.2 °F /  20.1 °C 58.1 °F /  14.5 °C 30in /  1015.6hPa ESE 2mph /  3.2km/h 2mph /  3.2km/h 70% 0in /  0.0mm 56 W/m2
08:57 68.7 °F /  20.4 °C 58.5 °F /  14.7 °C 30in /  1015.6hPa ENE 3mph /  4.8km/h 3mph /  4.8km/h 70% 0in /  0.0mm 56 W/m2
09:02 69.4 °F /  20.8 °C 58.8 °F /  14.9 °C 30in /  1015.6hPa Calm   2mph /  3.2km/h 69% 0in /  0.0mm 58 W/m2
09:07 70 °F /  21.1 °C 59 °F /  15 °C 30in /  1015.6hPa NE 0.9mph /  1.4km/h 4mph /  6.4km/h 68% 0in /  0.0mm 62 W/m2
09:12 70.2 °F /  21.2 °C 59.2 °F /  15.1 °C 30in /  1015.6hPa NE 0.9mph /  1.4km/h 6mph /  9.7km/h 68% 0in /  0.0mm 67 W/m2
09:17 70.2 °F /  21.2 °C 59.2 °F /  15.1 °C 30in /  1015.6hPa ENE 2mph /  3.2km/h 4mph /  6.4km/h 68% 0in /  0.0mm 192 W/m2
09:23 70.5 °F /  21.4 °C 59.4 °F /  15.2 °C 30in /  1015.6hPa East 2mph /  3.2km/h 6mph /  9.7km/h 68% 0in /  0.0mm 411 W/m2
09:28 71.2 °F /  21.8 °C 59.4 °F /  15.2 °C 30in /  1015.6hPa ESE 2mph /  3.2km/h 3mph /  4.8km/h 66% 0in /  0.0mm 445 W/m2
09:33 71.8 °F /  22.1 °C 59.4 °F /  15.2 °C 30in /  1015.2hPa ESE 0.9mph /  1.4km/h 4mph /  6.4km/h 65% 0in /  0.0mm 436 W/m2
09:38 72 °F /  22.2 °C 59.2 °F /  15.1 °C 30in /  1015.2hPa East 0.9mph /  1.4km/h 4mph /  6.4km/h 64% 0in /  0.0mm 424 W/m2
09:43 72.5 °F /  22.5 °C 59.5 °F /  15.3 °C 30in /  1015.2hPa SSE 0.9mph /  1.4km/h 2mph /  3.2km/h 64% 0in /  0.0mm 446 W/m2
09:48 73 °F /  22.8 °C 59.7 °F /  15.4 °C 30in /  1015.2hPa ESE 2mph /  3.2km/h 4mph /  6.4km/h 63% 0in /  0.0mm 487 W/m2
09:53 73.2 °F /  22.9 °C 59.9 °F /  15.5 °C 30in /  1015.2hPa North 0.9mph /  1.4km/h 3mph /  4.8km/h 63% 0in /  0.0mm 520 W/m2
09:58 73 °F /  22.8 °C 59.7 °F /  15.4 °C 30in /  1015.2hPa East 2mph /  3.2km/h 3mph /  4.8km/h 63% 0in /  0.0mm 524 W/m2
10:03 73 °F /  22.8 °C 59.2 °F /  15.1 °C 30in /  1015.2hPa East 2mph /  3.2km/h 3mph /  4.8km/h 62% 0in /  0.0mm 471 W/m2
10:08 73.6 °F /  23.1 °C 59.7 °F /  15.4 °C 30in /  1015.2hPa North 2mph /  3.2km/h 2mph /  3.2km/h 62% 0in /  0.0mm 120 W/m2
10:13 73.9 °F /  23.3 °C 59.7 °F /  15.4 °C 30in /  1015.2hPa East 2.9mph /  4.7km/h 4mph /  6.4km/h 61% 0in /  0.0mm 206 W/m2
10:18 74.3 °F /  23.5 °C 59.5 °F /  15.3 °C 30in /  1015.2hPa ENE 0.9mph /  1.4km/h 4mph /  6.4km/h 60% 0in /  0.0mm 571 W/m2
10:23 74.8 °F /  23.8 °C 60.1 °F /  15.6 °C 30in /  1015.2hPa ESE 0.9mph /  1.4km/h 1mph /  1.6km/h 60% 0in /  0.0mm 591 W/m2
10:28 75.6 °F /  24.2 °C 59.7 °F /  15.4 °C 30in /  1015.2hPa WSW 0.9mph /  1.4km/h 4mph /  6.4km/h 58% 0in /  0.0mm 533 W/m2
10:33 76.3 °F /  24.6 °C 61 °F /  16.1 °C 30in /  1015.2hPa NE 2mph /  3.2km/h 4mph /  6.4km/h 59% 0in /  0.0mm 622 W/m2
10:38 76.5 °F /  24.7 °C 60.1 °F /  15.6 °C 30in /  1015.2hPa ENE 2mph /  3.2km/h 5mph /  8km/h 57% 0in /  0.0mm 635 W/m2
10:43 76.8 °F /  24.9 °C 59.9 °F /  15.5 °C 30in /  1015.2hPa SE 2mph /  3.2km/h 4mph /  6.4km/h 56% 0in /  0.0mm 575 W/m2
10:48 77.4 °F /  25.2 °C 59.9 °F /  15.5 °C 30in /  1015.2hPa Calm   5mph /  8km/h 55% 0in /  0.0mm 406 W/m2
10:53 77.5 °F /  25.3 °C 59.5 °F /  15.3 °C 30in /  1015.2hPa Calm   2mph /  3.2km/h 54% 0in /  0.0mm 601 W/m2
10:58 77.7 °F /  25.4 °C 60.3 °F /  15.7 °C 30in /  1014.9hPa ESE 2mph /  3.2km/h 7mph /  11.3km/h 55% 0in /  0.0mm 659 W/m2
11:03 78.3 °F /  25.7 °C 60.3 °F /  15.7 °C 30in /  1014.9hPa East 4mph /  6.4km/h 4mph /  6.4km/h 54% 0in /  0.0mm 675 W/m2
11:08 78.8 °F /  26 °C 59.2 °F /  15.1 °C 30in /  1014.9hPa SE 2.9mph /  4.7km/h 6mph /  9.7km/h 51% 0in /  0.0mm 705 W/m2
11:13 79.3 °F /  26.3 °C 60.3 °F /  15.7 °C 30in /  1014.9hPa East 0.9mph /  1.4km/h 2mph /  3.2km/h 52% 0in /  0.0mm 700 W/m2
11:18 79.5 °F /  26.4 °C 59.2 °F /  15.1 °C 30in /  1014.9hPa WSW 4mph /  6.4km/h 6mph /  9.7km/h 50% 0in /  0.0mm 596 W/m2
11:23 79.5 °F /  26.4 °C 58.1 °F /  14.5 °C 30in /  1014.9hPa NW 0.9mph /  1.4km/h 3mph /  4.8km/h 48% 0in /  0.0mm 619 W/m2
11:28 79.9 °F /  26.6 °C 59 °F /  15 °C 30in /  1014.9hPa ESE 0.9mph /  1.4km/h 2mph /  3.2km/h 49% 0in /  0.0mm 668 W/m2
11:33 79.7 °F /  26.5 °C 57.7 °F /  14.3 °C 30in /  1014.9hPa East 2.9mph /  4.7km/h 3mph /  4.8km/h 47% 0in /  0.0mm 645 W/m2
11:38 79.9 °F /  26.6 °C 57.9 °F /  14.4 °C 30in /  1014.9hPa WNW 2mph /  3.2km/h 3mph /  4.8km/h 47% 0in /  0.0mm 647 W/m2
11:43 79.7 °F /  26.5 °C 57.7 °F /  14.3 °C 30in /  1014.9hPa WSW 0.9mph /  1.4km/h 3mph /  4.8km/h 47% 0in /  0.0mm 649 W/m2
11:48 79.9 °F /  26.6 °C 58.5 °F /  14.7 °C 30in /  1014.9hPa West 0.9mph /  1.4km/h 4mph /  6.4km/h 48% 0in /  0.0mm 735 W/m2
11:53 80.2 °F /  26.8 °C 58.1 °F /  14.5 °C 30in /  1014.9hPa Calm   2mph /  3.2km/h 47% 0in /  0.0mm 520 W/m2
11:58 80.6 °F /  27 °C 57.9 °F /  14.4 °C 30in /  1014.9hPa NW 4mph /  6.4km/h 5mph /  8km/h 46% 0in /  0.0mm 555 W/m2
12:03 80.2 °F /  26.8 °C 57 °F /  13.9 °C 30in /  1014.9hPa West 2mph /  3.2km/h 4mph /  6.4km/h 45% 0in /  0.0mm 770 W/m2
12:08 80.2 °F /  26.8 °C 57 °F /  13.9 °C 30in /  1014.9hPa West 2.9mph /  4.7km/h 6mph /  9.7km/h 45% 0in /  0.0mm 733 W/m2
12:13 80.2 °F /  26.8 °C 57 °F /  13.9 °C 30in /  1014.6hPa NW 4.9mph /  7.9km/h 7mph /  11.3km/h 45% 0in /  0.0mm 803 W/m2
12:18 80.8 °F /  27.1 °C 58.1 °F /  14.5 °C 30in /  1014.6hPa WNW 0.9mph /  1.4km/h 2mph /  3.2km/h 46% 0in /  0.0mm 838 W/m2
12:23 81.3 °F /  27.4 °C 57.4 °F /  14.1 °C 30in /  1014.6hPa NW 2mph /  3.2km/h 4mph /  6.4km/h 44% 0in /  0.0mm 867 W/m2
12:28 82 °F /  27.8 °C 57.4 °F /  14.1 °C 30in /  1014.6hPa Calm   3mph /  4.8km/h 43% 0in /  0.0mm 847 W/m2
12:33 82.9 °F /  28.3 °C 58.1 °F /  14.5 °C 30in /  1014.6hPa SE 4mph /  6.4km/h 4mph /  6.4km/h 43% 0in /  0.0mm 828 W/m2
12:38 83.1 °F /  28.4 °C 57 °F /  13.9 °C 30in /  1014.6hPa West 6mph /  9.7km/h 9mph /  14.5km/h 41% 0in /  0.0mm 793 W/m2
12:43 82.8 °F /  28.2 °C 56.7 °F /  13.7 °C 30in /  1014.6hPa NW 2mph /  3.2km/h 5mph /  8km/h 41% 0in /  0.0mm 805 W/m2
12:48 82 °F /  27.8 °C 55.9 °F /  13.3 °C 30in /  1014.6hPa Calm   9mph /  14.5km/h 41% 0in /  0.0mm 802 W/m2
12:53 82.2 °F /  27.9 °C 56.1 °F /  13.4 °C 30in /  1014.6hPa ENE 0.9mph /  1.4km/h 4mph /  6.4km/h 41% 0in /  0.0mm 705 W/m2
12:58 82.2 °F /  27.9 °C 56.1 °F /  13.4 °C 30in /  1014.6hPa NW 2.9mph /  4.7km/h 8mph /  12.9km/h 41% 0in /  0.0mm 694 W/m2
13:03 82 °F /  27.8 °C 56.7 °F /  13.7 °C 30in /  1014.6hPa NNW 2.9mph /  4.7km/h 4mph /  6.4km/h 42% 0in /  0.0mm 675 W/m2
13:08 82.2 °F /  27.9 °C 56.1 °F /  13.4 °C 30in /  1014.6hPa West 2.9mph /  4.7km/h 6mph /  9.7km/h 41% 0in /  0.0mm 780 W/m2
13:13 82.4 °F /  28 °C 56.3 °F /  13.5 °C 30in /  1014.6hPa ENE 0.9mph /  1.4km/h 3mph /  4.8km/h 41% 0in /  0.0mm 872 W/m2
13:18 82.9 °F /  28.3 °C 56.1 °F /  13.4 °C 30in /  1014.6hPa ESE 2mph /  3.2km/h 2mph /  3.2km/h 40% 0in /  0.0mm 821 W/m2
13:23 83.5 °F /  28.6 °C 56.7 °F /  13.7 °C 30in /  1014.6hPa NE 0.9mph /  1.4km/h 4mph /  6.4km/h 40% 0in /  0.0mm 649 W/m2
13:28 83.1 °F /  28.4 °C 54.9 °F /  12.7 °C 30in /  1014.6hPa WNW 0.9mph /  1.4km/h 9mph /  14.5km/h 38% 0in /  0.0mm 814 W/m2
13:33 82.9 °F /  28.3 °C 57.6 °F /  14.2 °C 30in /  1014.6hPa NNW 0.9mph /  1.4km/h 4mph /  6.4km/h 42% 0in /  0.0mm 766 W/m2
13:38 83.3 °F /  28.5 °C 56.5 °F /  13.6 °C 30in /  1014.6hPa NW 0.9mph /  1.4km/h 9mph /  14.5km/h 40% 0in /  0.0mm 846 W/m2
13:43 82.8 °F /  28.2 °C 55.9 °F /  13.3 °C 30in /  1014.6hPa NNW 2.9mph /  4.7km/h 7mph /  11.3km/h 40% 0in /  0.0mm 874 W/m2
13:48 82.6 °F /  28.1 °C 55.8 °F /  13.2 °C 30in /  1014.6hPa WNW 4mph /  6.4km/h 9mph /  14.5km/h 40% 0in /  0.0mm 696 W/m2
13:53 82.4 °F /  28 °C 55.6 °F /  13.1 °C 30in /  1014.6hPa West 4mph /  6.4km/h 6mph /  9.7km/h 40% 0in /  0.0mm 599 W/m2
13:58 82.4 °F /  28 °C 56.3 °F /  13.5 °C 30in /  1014.6hPa West 0.9mph /  1.4km/h 2mph /  3.2km/h 41% 0in /  0.0mm 749 W/m2
14:03 82.9 °F /  28.3 °C 55.4 °F /  13 °C 30in /  1014.2hPa NW 4.9mph /  7.9km/h 8mph /  12.9km/h 39% 0in /  0.0mm 816 W/m2
14:08 83.3 °F /  28.5 °C 54.3 °F /  12.4 °C 30in /  1014.6hPa NNW 2mph /  3.2km/h 9mph /  14.5km/h 37% 0in /  0.0mm 596 W/m2
14:13 82.9 °F /  28.3 °C 54 °F /  12.2 °C 30in /  1014.6hPa West 6mph /  9.7km/h 7mph /  11.3km/h 37% 0in /  0.0mm 529 W/m2
14:18 82.6 °F /  28.1 °C 54.3 °F /  12.4 °C 30in /  1014.2hPa SW 2mph /  3.2km/h 4mph /  6.4km/h 38% 0in /  0.0mm 833 W/m2
14:23 82.9 °F /  28.3 °C 55.4 °F /  13 °C 30in /  1014.2hPa WNW 8.9mph /  14.3km/h 11mph /  17.7km/h 39% 0in /  0.0mm 863 W/m2
14:28 83.1 °F /  28.4 °C 54.9 °F /  12.7 °C 30in /  1014.2hPa NW 2.9mph /  4.7km/h 11mph /  17.7km/h 38% 0in /  0.0mm 633 W/m2
14:33 82.8 °F /  28.2 °C 54.5 °F /  12.5 °C 30in /  1014.2hPa NNW 2mph /  3.2km/h 6mph /  9.7km/h 38% 0in /  0.0mm 540 W/m2
14:38 82.9 °F /  28.3 °C 54.7 °F /  12.6 °C 30in /  1014.2hPa NW 0.9mph /  1.4km/h 11mph /  17.7km/h 38% 0in /  0.0mm 686 W/m2
14:43 83.7 °F /  28.7 °C 55.4 °F /  13 °C 30in /  1014.2hPa WSW 2mph /  3.2km/h 4mph /  6.4km/h 38% 0in /  0.0mm 659 W/m2
14:48 83.7 °F /  28.7 °C 54.7 °F /  12.6 °C 30in /  1014.2hPa SSE 0.9mph /  1.4km/h 3mph /  4.8km/h 37% 0in /  0.0mm 619 W/m2
14:53 83.8 °F /  28.8 °C 55.6 °F /  13.1 °C 30in /  1014.2hPa ENE 0.9mph /  1.4km/h 3mph /  4.8km/h 38% 0in /  0.0mm 819 W/m2
14:58 83.8 °F /  28.8 °C 53.2 °F /  11.8 °C 30in /  1014.2hPa SW 2mph /  3.2km/h 9mph /  14.5km/h 35% 0in /  0.0mm 636 W/m2
15:03 84 °F /  28.9 °C 54.9 °F /  12.7 °C 30in /  1014.2hPa Calm   1mph /  1.6km/h 37% 0in /  0.0mm 555 W/m2
15:08 84.6 °F /  29.2 °C 54 °F /  12.2 °C 29.9in /  1013.9hPa WNW 4mph /  6.4km/h 7mph /  11.3km/h 35% 0in /  0.0mm 587 W/m2
15:13 84.6 °F /  29.2 °C 51.4 °F /  10.8 °C 29.9in /  1013.9hPa WSW 0.9mph /  1.4km/h 3mph /  4.8km/h 32% 0in /  0.0mm 575 W/m2
15:18 84.4 °F /  29.1 °C 51.3 °F /  10.7 °C 29.9in /  1013.9hPa West 6.9mph /  11.1km/h 7mph /  11.3km/h 32% 0in /  0.0mm 663 W/m2
15:23 84.4 °F /  29.1 °C 49.6 °F /  9.8 °C 29.9in /  1013.9hPa WSW 4mph /  6.4km/h 4mph /  6.4km/h 30% 0in /  0.0mm 577 W/m2
15:28 84.6 °F /  29.2 °C 53.1 °F /  11.7 °C 29.9in /  1013.9hPa NE 0.9mph /  1.4km/h 1mph /  1.6km/h 34% 0in /  0.0mm 536 W/m2
15:33 84.7 °F /  29.3 °C 51.6 °F /  10.9 °C 29.9in /  1013.9hPa WSW 2mph /  3.2km/h 6mph /  9.7km/h 32% 0in /  0.0mm 512 W/m2
15:38 84.6 °F /  29.2 °C 52.3 °F /  11.3 °C 29.9in /  1013.9hPa ENE 0.9mph /  1.4km/h 2mph /  3.2km/h 33% 0in /  0.0mm 601 W/m2
15:43 84.9 °F /  29.4 °C 52.5 °F /  11.4 °C 29.9in /  1013.9hPa NNW 2.9mph /  4.7km/h 6mph /  9.7km/h 33% 0in /  0.0mm 568 W/m2
15:48 84.9 °F /  29.4 °C 49.1 °F /  9.5 °C 29.9in /  1013.9hPa West 2.9mph /  4.7km/h 3mph /  4.8km/h 29% 0in /  0.0mm 494 W/m2
15:53 84.7 °F /  29.3 °C 48.9 °F /  9.4 °C 29.9in /  1013.9hPa NW 2.9mph /  4.7km/h 4mph /  6.4km/h 29% 0in /  0.0mm 631 W/m2
15:58 84.7 °F /  29.3 °C 48 °F /  8.9 °C 29.9in /  1013.9hPa NW 2mph /  3.2km/h 5mph /  8km/h 28% 0in /  0.0mm 571 W/m2
16:03 84.6 °F /  29.2 °C 48.7 °F /  9.3 °C 29.9in /  1013.9hPa SSE 0.9mph /  1.4km/h 5mph /  8km/h 29% 0in /  0.0mm 708 W/m2
16:08 84.9 °F /  29.4 °C 48.2 °F /  9 °C 29.9in /  1013.9hPa WNW 2mph /  3.2km/h 4mph /  6.4km/h 28% 0in /  0.0mm 585 W/m2
16:13 84.9 °F /  29.4 °C 50 °F /  10 °C 29.9in /  1013.5hPa West 0.9mph /  1.4km/h 4mph /  6.4km/h 30% 0in /  0.0mm 670 W/m2
16:18 85.3 °F /  29.6 °C 49.5 °F /  9.7 °C 29.9in /  1013.5hPa WNW 4mph /  6.4km/h 8mph /  12.9km/h 29% 0in /  0.0mm 670 W/m2
16:23 85.6 °F /  29.8 °C 51.6 °F /  10.9 °C 29.9in /  1013.5hPa ENE 0.9mph /  1.4km/h 2mph /  3.2km/h 31% 0in /  0.0mm 717 W/m2
16:28 85.8 °F /  29.9 °C 51.6 °F /  10.9 °C 29.9in /  1013.5hPa SW 2mph /  3.2km/h 3mph /  4.8km/h 31% 0in /  0.0mm 675 W/m2
16:33 86.2 °F /  30.1 °C 51.1 °F /  10.6 °C 29.9in /  1013.5hPa Calm   2mph /  3.2km/h 30% 0in /  0.0mm 654 W/m2
16:38 85.8 °F /  29.9 °C 50.7 °F /  10.4 °C 29.9in /  1013.5hPa NW 4mph /  6.4km/h 7mph /  11.3km/h 30% 0in /  0.0mm 520 W/m2
16:43 85.6 °F /  29.8 °C 50.7 °F /  10.4 °C 29.9in /  1013.5hPa WSW 6.9mph /  11.1km/h 7mph /  11.3km/h 30% 0in /  0.0mm 578 W/m2
16:48 85.3 °F /  29.6 °C 51.3 °F /  10.7 °C 29.9in /  1013.5hPa West 6mph /  9.7km/h 9mph /  14.5km/h 31% 0in /  0.0mm 278 W/m2
16:53 84.4 °F /  29.1 °C 50.4 °F /  10.2 °C 29.9in /  1013.5hPa West 2mph /  3.2km/h 4mph /  6.4km/h 31% 0in /  0.0mm 207 W/m2
16:58 84 °F /  28.9 °C 50.2 °F /  10.1 °C 29.9in /  1013.5hPa Calm   8mph /  12.9km/h 31% 0in /  0.0mm 216 W/m2
17:03 83.8 °F /  28.8 °C 51.6 °F /  10.9 °C 29.9in /  1013.5hPa SSW 4.9mph /  7.9km/h 5mph /  8km/h 33% 0in /  0.0mm 357 W/m2
17:08 84.4 °F /  29.1 °C 49.6 °F /  9.8 °C 29.9in /  1013.5hPa WSW 2.9mph /  4.7km/h 6mph /  9.7km/h 30% 0in /  0.0mm 603 W/m2
17:13 85.3 °F /  29.6 °C 50.4 °F /  10.2 °C 29.9in /  1013.5hPa WNW 2.9mph /  4.7km/h 4mph /  6.4km/h 30% 0in /  0.0mm 738 W/m2
17:18 85.6 °F /  29.8 °C 49.8 °F /  9.9 °C 29.9in /  1013.2hPa West 2.9mph /  4.7km/h 3mph /  4.8km/h 29% 0in /  0.0mm 677 W/m2
17:23 85.6 °F /  29.8 °C 49.8 °F /  9.9 °C 29.9in /  1013.2hPa Calm   3mph /  4.8km/h 29% 0in /  0.0mm 628 W/m2
17:28 86.2 °F /  30.1 °C 50.2 °F /  10.1 °C 29.9in /  1013.5hPa WNW 2.9mph /  4.7km/h 7mph /  11.3km/h 29% 0in /  0.0mm 613 W/m2
17:33 86.2 °F /  30.1 °C 50.2 °F /  10.1 °C 29.9in /  1013.2hPa WNW 0.9mph /  1.4km/h 5mph /  8km/h 29% 0in /  0.0mm 601 W/m2
17:38 86 °F /  30 °C 50 °F /  10 °C 29.9in /  1013.2hPa West 2.9mph /  4.7km/h 7mph /  11.3km/h 29% 0in /  0.0mm 584 W/m2
17:43 86.4 °F /  30.2 °C 50.4 °F /  10.2 °C 29.9in /  1013.2hPa West 6.9mph /  11.1km/h 9mph /  14.5km/h 29% 0in /  0.0mm 568 W/m2
17:48 86.4 °F /  30.2 °C 51.3 °F /  10.7 °C 29.9in /  1013.2hPa WSW 2.9mph /  4.7km/h 3mph /  4.8km/h 30% 0in /  0.0mm 563 W/m2
17:54 86.5 °F /  30.3 °C 49.6 °F /  9.8 °C 29.9in /  1013.2hPa West 0.9mph /  1.4km/h 7mph /  11.3km/h 28% 0in /  0.0mm 582 W/m2
17:59 86.4 °F /  30.2 °C 49.5 °F /  9.7 °C 29.9in /  1013.2hPa NW 2mph /  3.2km/h 7mph /  11.3km/h 28% 0in /  0.0mm 309 W/m2
18:04 86.2 °F /  30.1 °C 49.3 °F /  9.6 °C 29.9in /  1013.2hPa Calm   4mph /  6.4km/h 28% 0in /  0.0mm 538 W/m2
18:09 86.2 °F /  30.1 °C 50.2 °F /  10.1 °C 29.9in /  1013.2hPa West 2.9mph /  4.7km/h 7mph /  11.3km/h 29% 0in /  0.0mm 519 W/m2
18:14 86.4 °F /  30.2 °C 50.4 °F /  10.2 °C 29.9in /  1013.2hPa WNW 0.9mph /  1.4km/h 7mph /  11.3km/h 29% 0in /  0.0mm 490 W/m2
18:19 86.5 °F /  30.3 °C 48.6 °F /  9.2 °C 29.9in /  1012.9hPa West 2.9mph /  4.7km/h 5mph /  8km/h 27% 0in /  0.0mm 473 W/m2
18:24 86.2 °F /  30.1 °C 48.2 °F /  9 °C 29.9in /  1012.9hPa WSW 4mph /  6.4km/h 8mph /  12.9km/h 27% 0in /  0.0mm 455 W/m2
18:29 86.2 °F /  30.1 °C 49.3 °F /  9.6 °C 29.9in /  1012.9hPa WNW 6.9mph /  11.1km/h 7mph /  11.3km/h 28% 0in /  0.0mm 439 W/m2
18:34 86.2 °F /  30.1 °C 49.3 °F /  9.6 °C 29.9in /  1012.9hPa WNW 4mph /  6.4km/h 8mph /  12.9km/h 28% 0in /  0.0mm 417 W/m2
18:39 85.8 °F /  29.9 °C 48.9 °F /  9.4 °C 29.9in /  1012.9hPa WSW 4mph /  6.4km/h 8mph /  12.9km/h 28% 0in /  0.0mm 392 W/m2
18:44 85.8 °F /  29.9 °C 48.9 °F /  9.4 °C 29.9in /  1012.9hPa West 4mph /  6.4km/h 11mph /  17.7km/h 28% 0in /  0.0mm 350 W/m2
18:49 85.8 °F /  29.9 °C 48.9 °F /  9.4 °C 29.9in /  1012.9hPa WNW 2.9mph /  4.7km/h 7mph /  11.3km/h 28% 0in /  0.0mm 320 W/m2
18:54 85.6 °F /  29.8 °C 48.7 °F /  9.3 °C 29.9in /  1012.9hPa West 2.9mph /  4.7km/h 11mph /  17.7km/h 28% 0in /  0.0mm 301 W/m2
18:59 85.6 °F /  29.8 °C 48.7 °F /  9.3 °C 29.9in /  1012.9hPa WNW 4mph /  6.4km/h 4mph /  6.4km/h 28% 0in /  0.0mm 281 W/m2
19:04 85.5 °F /  29.7 °C 49.6 °F /  9.8 °C 29.9in /  1012.9hPa NW 2.9mph /  4.7km/h 8mph /  12.9km/h 29% 0in /  0.0mm 258 W/m2
19:09 85.6 °F /  29.8 °C 48.7 °F /  9.3 °C 29.9in /  1012.9hPa NNE 2mph /  3.2km/h 4mph /  6.4km/h 28% 0in /  0.0mm 237 W/m2
19:14 85.5 °F /  29.7 °C 48.6 °F /  9.2 °C 29.9in /  1012.9hPa SW 2mph /  3.2km/h 8mph /  12.9km/h 28% 0in /  0.0mm 230 W/m2
19:20 85.6 °F /  29.8 °C 49.8 °F /  9.9 °C 29.9in /  1012.9hPa WNW 0.9mph /  1.4km/h 2mph /  3.2km/h 29% 0in /  0.0mm 237 W/m2
19:25 85.8 °F /  29.9 °C 48.9 °F /  9.4 °C 29.9in /  1012.9hPa WNW 2.9mph /  4.7km/h 7mph /  11.3km/h 28% 0in /  0.0mm 255 W/m2
19:30 85.6 °F /  29.8 °C 50.7 °F /  10.4 °C 29.9in /  1012.9hPa NNW 2mph /  3.2km/h 7mph /  11.3km/h 30% 0in /  0.0mm 258 W/m2
19:35 85.5 °F /  29.7 °C 51.4 °F /  10.8 °C 29.9in /  1012.9hPa WSW 2.9mph /  4.7km/h 6mph /  9.7km/h 31% 0in /  0.0mm 253 W/m2
19:40 85.1 °F /  29.5 °C 50.2 °F /  10.1 °C 29.9in /  1012.9hPa West 6mph /  9.7km/h 7mph /  11.3km/h 30% 0in /  0.0mm 236 W/m2
19:45 84.9 °F /  29.4 °C 50 °F /  10 °C 29.9in /  1012.9hPa WSW 2.9mph /  4.7km/h 6mph /  9.7km/h 30% 0in /  0.0mm 218 W/m2
19:50 84.7 °F /  29.3 °C 50.7 °F /  10.4 °C 29.9in /  1012.9hPa WNW 4mph /  6.4km/h 4mph /  6.4km/h 31% 0in /  0.0mm 158 W/m2
19:55 84.6 °F /  29.2 °C 52.3 °F /  11.3 °C 29.9in /  1012.9hPa WSW 4.9mph /  7.9km/h 6mph /  9.7km/h 33% 0in /  0.0mm 158 W/m2
20:00 84.2 °F /  29 °C 53.6 °F /  12 °C 29.9in /  1012.9hPa WSW 2.9mph /  4.7km/h 8mph /  12.9km/h 35% 0in /  0.0mm 137 W/m2
20:05 83.8 °F /  28.8 °C 54.9 °F /  12.7 °C 29.9in /  1012.9hPa West 2mph /  3.2km/h 6mph /  9.7km/h 37% 0in /  0.0mm 130 W/m2
20:10 83.5 °F /  28.6 °C 54.5 °F /  12.5 °C 29.9in /  1013.2hPa WNW 2.9mph /  4.7km/h 8mph /  12.9km/h 37% 0in /  0.0mm 127 W/m2
20:15 83.1 °F /  28.4 °C 54.9 °F /  12.7 °C 29.9in /  1012.9hPa WNW 2mph /  3.2km/h 9mph /  14.5km/h 38% 0in /  0.0mm 123 W/m2
20:20 82.9 °F /  28.3 °C 55.4 °F /  13 °C 29.9in /  1013.2hPa West 2mph /  3.2km/h 5mph /  8km/h 39% 0in /  0.0mm 113 W/m2
20:25 82.8 °F /  28.2 °C 55.2 °F /  12.9 °C 29.9in /  1013.2hPa WSW 4mph /  6.4km/h 9mph /  14.5km/h 39% 0in /  0.0mm 97 W/m2
20:30 82.4 °F /  28 °C 55.6 °F /  13.1 °C 29.9in /  1013.2hPa West 0.9mph /  1.4km/h 3mph /  4.8km/h 40% 0in /  0.0mm 84 W/m2
20:35 82 °F /  27.8 °C 55.4 °F /  13 °C 29.9in /  1013.2hPa SW 2mph /  3.2km/h 7mph /  11.3km/h 40% 0in /  0.0mm 74 W/m2
20:40 81.7 °F /  27.6 °C 55 °F /  12.8 °C 29.9in /  1013.2hPa WSW 2mph /  3.2km/h 4mph /  6.4km/h 40% 0in /  0.0mm 63 W/m2
20:45 81.3 °F /  27.4 °C 55.4 °F /  13 °C 29.9in /  1013.2hPa WNW 4mph /  6.4km/h 6mph /  9.7km/h 41% 0in /  0.0mm 51 W/m2
20:50 80.8 °F /  27.1 °C 54.9 °F /  12.7 °C 29.9in /  1013.2hPa West 2.9mph /  4.7km/h 4mph /  6.4km/h 41% 0in /  0.0mm 40 W/m2
20:55 80.2 °F /  26.8 °C 54.3 °F /  12.4 °C 29.9in /  1013.2hPa West 2.9mph /  4.7km/h 5mph /  8km/h 41% 0in /  0.0mm 35 W/m2
21:00 79.9 °F /  26.6 °C 54.1 °F /  12.3 °C 29.9in /  1013.2hPa WNW 2.9mph /  4.7km/h 6mph /  9.7km/h 41% 0in /  0.0mm 23 W/m2
21:05 79.3 °F /  26.3 °C 54.3 °F /  12.4 °C 29.9in /  1013.2hPa WSW 2mph /  3.2km/h 3mph /  4.8km/h 42% 0in /  0.0mm 14 W/m2
21:10 78.8 °F /  26 °C 53.8 °F /  12.1 °C 29.9in /  1013.2hPa West 2.9mph /  4.7km/h 3mph /  4.8km/h 42% 0in /  0.0mm 11 W/m2
21:15 78.3 °F /  25.7 °C 54 °F /  12.2 °C 29.9in /  1013.2hPa West 2mph /  3.2km/h 2mph /  3.2km/h 43% 0in /  0.0mm 7 W/m2
21:20 77.7 °F /  25.4 °C 53.4 °F /  11.9 °C 29.9in /  1013.2hPa WSW 0.9mph /  1.4km/h 4mph /  6.4km/h 43% 0in /  0.0mm 5 W/m2
21:25 77.4 °F /  25.2 °C 53.8 °F /  12.1 °C 29.9in /  1013.2hPa West 0.9mph /  1.4km/h 2mph /  3.2km/h 44% 0in /  0.0mm 0 W/m2
21:30 76.6 °F /  24.8 °C 53.8 °F /  12.1 °C 29.9in /  1013.2hPa WSW 2mph /  3.2km/h 4mph /  6.4km/h 45% 0in /  0.0mm 0 W/m2
21:35 76.3 °F /  24.6 °C 53.4 °F /  11.9 °C 29.9in /  1013.2hPa WSW 2mph /  3.2km/h 3mph /  4.8km/h 45% 0in /  0.0mm 0 W/m2
21:40 75.9 °F /  24.4 °C 53.6 °F /  12 °C 29.9in /  1013.5hPa WSW 0.9mph /  1.4km/h 4mph /  6.4km/h 46% 0in /  0.0mm 0 W/m2
21:45 75.6 °F /  24.2 °C 53.2 °F /  11.8 °C 29.9in /  1013.5hPa WNW 0.9mph /  1.4km/h 4mph /  6.4km/h 46% 0in /  0.0mm 0 W/m2
21:50 75.4 °F /  24.1 °C 53.2 °F /  11.8 °C 29.9in /  1013.5hPa WSW 2mph /  3.2km/h 3mph /  4.8km/h 46% 0in /  0.0mm 0 W/m2
21:55 75.2 °F /  24 °C 53.1 °F /  11.7 °C 29.9in /  1013.5hPa WSW 2mph /  3.2km/h 2mph /  3.2km/h 46% 0in /  0.0mm 0 W/m2
22:00 74.8 °F /  23.8 °C 52.7 °F /  11.5 °C 29.9in /  1013.5hPa WSW 2mph /  3.2km/h 2mph /  3.2km/h 46% 0in /  0.0mm 0 W/m2
22:05 74.7 °F /  23.7 °C 52.5 °F /  11.4 °C 29.9in /  1013.5hPa West 0.9mph /  1.4km/h 3mph /  4.8km/h 46% 0in /  0.0mm 0 W/m2
22:10 74.5 °F /  23.6 °C 52.9 °F /  11.6 °C 29.9in /  1013.5hPa West 0.9mph /  1.4km/h 2mph /  3.2km/h 47% 0in /  0.0mm 0 W/m2
22:15 74.1 °F /  23.4 °C 52.5 °F /  11.4 °C 29.9in /  1013.5hPa Calm   2mph /  3.2km/h 47% 0in /  0.0mm 0 W/m2
22:20 73.9 °F /  23.3 °C 52.5 °F /  11.4 °C 29.9in /  1013.5hPa WSW 0.9mph /  1.4km/h 3mph /  4.8km/h 47% 0in /  0.0mm 0 W/m2
22:25 73.8 °F /  23.2 °C 51.6 °F /  10.9 °C 29.9in /  1013.5hPa WSW 0.9mph /  1.4km/h 3mph /  4.8km/h 46% 0in /  0.0mm 0 W/m2
22:30 73.6 °F /  23.1 °C 52.2 °F /  11.2 °C 29.9in /  1013.5hPa WSW 2mph /  3.2km/h 2mph /  3.2km/h 47% 0in /  0.0mm 0 W/m2
22:35 73.4 °F /  23 °C 51.4 °F /  10.8 °C 29.9in /  1013.9hPa West 0.9mph /  1.4km/h 3mph /  4.8km/h 46% 0in /  0.0mm 0 W/m2
22:40 73 °F /  22.8 °C 52.2 °F /  11.2 °C 29.9in /  1013.9hPa West 0.9mph /  1.4km/h 1mph /  1.6km/h 48% 0in /  0.0mm 0 W/m2
22:45 72.7 °F /  22.6 °C 52.3 °F /  11.3 °C 29.9in /  1013.9hPa West 2mph /  3.2km/h 2mph /  3.2km/h 49% 0in /  0.0mm 0 W/m2
22:50 72.1 °F /  22.3 °C 52.5 °F /  11.4 °C 29.9in /  1013.9hPa West 2mph /  3.2km/h 2mph /  3.2km/h 50% 0in /  0.0mm 0 W/m2
22:55 71.8 °F /  22.1 °C 51.6 °F /  10.9 °C 29.9in /  1013.9hPa West 2mph /  3.2km/h 2mph /  3.2km/h 49% 0in /  0.0mm 0 W/m2
23:00 72.1 °F /  22.3 °C 51.4 °F /  10.8 °C 29.9in /  1013.9hPa West 0.9mph /  1.4km/h 4mph /  6.4km/h 48% 0in /  0.0mm 0 W/m2
23:05 72.3 °F /  22.4 °C 50.9 °F /  10.5 °C 29.9in /  1013.9hPa West 2.9mph /  4.7km/h 4mph /  6.4km/h 47% 0in /  0.0mm 0 W/m2
23:10 72.5 °F /  22.5 °C 51.1 °F /  10.6 °C 29.9in /  1013.9hPa West 2mph /  3.2km/h 4mph /  6.4km/h 47% 0in /  0.0mm 0 W/m2
23:15 72.7 °F /  22.6 °C 50.7 °F /  10.4 °C 29.9in /  1013.9hPa WSW 2.9mph /  4.7km/h 4mph /  6.4km/h 46% 0in /  0.0mm 0 W/m2
23:20 72.7 °F /  22.6 °C 50.7 °F /  10.4 °C 29.9in /  1013.9hPa West 2mph /  3.2km/h 3mph /  4.8km/h 46% 0in /  0.0mm 0 W/m2
23:25 72.5 °F /  22.5 °C 51.1 °F /  10.6 °C 29.9in /  1013.9hPa West 0.9mph /  1.4km/h 2mph /  3.2km/h 47% 0in /  0.0mm 0 W/m2
23:30 72.1 °F /  22.3 °C 50.7 °F /  10.4 °C 29.9in /  1013.9hPa West 0.9mph /  1.4km/h 2mph /  3.2km/h 47% 0in /  0.0mm 0 W/m2
23:35 71.8 °F /  22.1 °C 50.5 °F /  10.3 °C 29.9in /  1013.9hPa WSW 2mph /  3.2km/h 2mph /  3.2km/h 47% 0in /  0.0mm 0 W/m2
23:40 71.4 °F /  21.9 °C 50.2 °F /  10.1 °C 29.9in /  1013.9hPa Calm   1mph /  1.6km/h 47% 0in /  0.0mm 0 W/m2
23:45 71.1 °F /  21.7 °C 50.4 °F /  10.2 °C 30in /  1014.2hPa Calm   1mph /  1.6km/h 48% 0in /  0.0mm 0 W/m2
23:50 70.5 °F /  21.4 °C 50.9 °F /  10.5 °C 30in /  1014.2hPa West 0.9mph /  1.4km/h 3mph /  4.8km/h 50% 0in /  0.0mm 0 W/m2
23:55 70.2 °F /  21.2 °C 51.3 °F /  10.7 °C 30in /  1014.2hPa Calm     51% 0in /  0.0mm 0 W/m2
Juneau County Weather
Compliments of Weather Underground - 4 mb